Time;durP1;ratioP1;P1;durP2;ratioP2;P2;SDS_P1;SDS_P2;PMS_P1;PMS_P2;Temp;Humidity;BMP_temperature;BMP_pressure;BME280_temperature;BME280_humidity;BME280_pressure;Samples;Min_cycle;Max_cycle;Signal;HPM_P1;HPM_P2
2021/12/08 00:02:31;;;;;;;8.55;2.35;;;5.60;90.20;;;;;;6272409;28;20128;-81
2021/12/08 00:05:34;;;;;;;6.50;2.90;;;5.60;90.20;;;;;;6275632;28;20095;-82
2021/12/08 00:08:36;;;;;;;6.35;1.75;;;5.70;90.20;;;;;;6275931;28;20430;-82
2021/12/08 00:14:59;;;;;;;11.50;4.18;;;5.80;90.20;;;;;;6275494;28;20426;-80
2021/12/08 00:18:03;;;;;;;6.47;2.95;;;5.90;90.20;;;;;;6275206;28;20413;-82
2021/12/08 00:21:07;;;;;;;6.78;3.00;;;5.90;90.20;;;;;;6274891;28;20052;-80
2021/12/08 00:24:09;;;;;;;8.13;2.97;;;5.90;91.10;;;;;;6275713;28;20090;-80
2021/12/08 00:27:12;;;;;;;6.45;3.13;;;5.90;91.80;;;;;;6275504;28;20053;-81
2021/12/08 00:30:15;;;;;;;8.57;2.90;;;5.90;92.40;;;;;;6277049;28;20052;-80
2021/12/08 00:33:18;;;;;;;7.28;2.22;;;5.90;92.80;;;;;;6277058;28;20126;-79
2021/12/08 00:36:27;;;;;;;4.22;2.40;;;5.90;93.10;;;;;;6276314;28;20202;-80
2021/12/08 00:39:29;;;;;;;6.47;2.20;;;5.90;93.60;;;;;;6276782;28;20053;-79
2021/12/08 00:42:32;;;;;;;6.38;3.42;;;5.90;93.90;;;;;;6276692;28;20040;-81
2021/12/08 00:45:35;;;;;;;4.93;2.13;;;5.80;93.80;;;;;;6275757;28;20123;-80
2021/12/08 00:48:39;;;;;;;6.05;2.55;;;5.70;94.10;;;;;;6276263;28;20056;-81
2021/12/08 00:51:41;;;;;;;9.55;2.80;;;5.80;94.20;;;;;;6276824;28;20083;-80
2021/12/08 00:54:43;;;;;;;7.18;2.30;;;5.80;94.30;;;;;;6276749;28;20060;-80
2021/12/08 00:57:46;;;;;;;6.70;2.60;;;5.90;94.40;;;;;;6275320;28;20092;-80
2021/12/08 01:00:50;;;;;;;4.60;2.47;;;5.80;94.30;;;;;;6274803;28;20696;-81
2021/12/08 01:03:52;;;;;;;10.32;2.45;;;5.90;94.40;;;;;;6275093;28;20167;-80
2021/12/08 01:06:54;;;;;;;11.15;3.10;;;5.80;94.30;;;;;;6276540;28;20060;-81
2021/12/08 01:09:56;;;;;;;7.22;3.40;;;5.80;94.30;;;;;;6275440;28;20554;-79
2021/12/08 01:13:01;;;;;;;11.95;3.95;;;5.80;94.50;;;;;;6276102;28;20048;-80
2021/12/08 01:16:03;;;;;;;10.60;3.28;;;5.90;94.40;;;;;;6275856;28;20044;-80
2021/12/08 01:19:05;;;;;;;10.43;3.03;;;5.80;94.40;;;;;;6276191;28;20525;-80
2021/12/08 01:22:07;;;;;;;8.48;3.20;;;5.80;94.50;;;;;;6275146;28;20037;-80
2021/12/08 01:25:09;;;;;;;11.77;3.55;;;5.80;94.60;;;;;;6274389;28;20049;-79
2021/12/08 01:28:12;;;;;;;8.60;4.20;;;5.80;94.60;;;;;;6274812;28;20395;-79
2021/12/08 01:31:14;;;;;;;9.20;4.32;;;5.90;94.50;;;;;;6273779;28;20131;-80
2021/12/08 01:34:16;;;;;;;16.17;4.22;;;5.80;94.40;;;;;;6275887;28;20124;-81
2021/12/08 01:37:19;;;;;;;9.10;4.05;;;5.80;94.30;;;;;;6282602;28;20088;-81
2021/12/08 01:40:21;;;;;;;11.13;4.70;;;5.70;94.50;;;;;;6280519;28;20045;-81
2021/12/08 01:43:27;;;;;;;10.55;4.50;;;5.70;94.30;;;;;;6279505;28;20044;-81
2021/12/08 01:46:28;;;;;;;7.78;4.00;;;5.60;94.30;;;;;;6280354;28;20064;-82
2021/12/08 01:49:30;;;;;;;16.42;3.97;;;5.50;94.30;;;;;;6281396;28;20553;-81
2021/12/08 01:52:32;;;;;;;15.75;4.07;;;5.50;94.40;;;;;;6279903;28;20047;-81
2021/12/08 01:55:35;;;;;;;9.65;4.15;;;5.40;94.50;;;;;;6279200;28;20056;-80
2021/12/08 01:58:38;;;;;;;7.35;4.50;;;5.30;94.40;;;;;;6280260;28;20155;-82
2021/12/08 02:01:43;;;;;;;8.30;4.13;;;5.30;94.50;;;;;;6275768;28;20097;-81
2021/12/08 02:04:45;;;;;;;8.73;3.20;;;5.20;94.60;;;;;;6264946;28;20045;-81
2021/12/08 02:07:47;;;;;;;9.18;3.80;;;5.10;94.70;;;;;;6278660;28;20041;-82
2021/12/08 02:10:49;;;;;;;9.15;4.45;;;5.00;94.70;;;;;;6278699;28;20053;-81
2021/12/08 02:13:59;;;;;;;9.07;4.03;;;5.00;95.10;;;;;;6276765;28;20049;-80
2021/12/08 02:17:01;;;;;;;8.98;3.72;;;5.00;95.20;;;;;;6272779;28;20045;-80
2021/12/08 02:20:05;;;;;;;9.70;4.53;;;5.00;95.30;;;;;;6272590;28;20418;-79
2021/12/08 02:23:09;;;;;;;13.82;4.43;;;5.10;95.30;;;;;;6273901;28;20051;-79
2021/12/08 02:26:10;;;;;;;9.82;3.97;;;5.20;95.40;;;;;;6274773;28;20048;-82
2021/12/08 02:29:19;;;;;;;9.80;4.32;;;5.30;95.50;;;;;;6274039;28;20207;-81
2021/12/08 02:46:36;;;;;;;8.15;4.93;;;5.40;95.40;;;;;;6273473;28;20118;-80
2021/12/08 02:49:11;;;;;;;15.55;4.15;;;5.70;94.90;;;;;;6272906;28;20507;-80
2021/12/08 02:52:16;;;;;;;11.38;5.15;;;5.70;94.80;;;;;;6272156;28;20391;-81
2021/12/08 02:55:19;;;;;;;10.93;4.50;;;5.70;94.80;;;;;;6272612;28;20049;-81
2021/12/08 02:58:21;;;;;;;10.20;5.05;;;5.80;94.80;;;;;;6273335;28;20052;-80
2021/12/08 03:01:23;;;;;;;11.43;5.05;;;5.80;94.80;;;;;;6272468;28;20068;-80
2021/12/08 03:04:25;;;;;;;9.48;4.38;;;5.80;94.70;;;;;;6256227;28;20123;-78
2021/12/08 03:07:27;;;;;;;12.40;4.75;;;5.80;94.70;;;;;;6248180;28;20196;-78
2021/12/08 03:10:33;;;;;;;9.05;4.40;;;5.90;94.80;;;;;;6248749;28;20053;-80
2021/12/08 03:13:39;;;;;;;9.30;4.68;;;5.90;94.70;;;;;;6247681;28;20507;-81
2021/12/08 03:16:44;;;;;;;9.68;4.60;;;6.00;94.70;;;;;;6247290;28;20041;-80
2021/12/08 03:19:46;;;;;;;15.75;5.40;;;6.00;94.60;;;;;;6247528;28;20140;-81
2021/12/08 03:22:50;;;;;;;12.27;5.35;;;6.00;94.40;;;;;;6247664;28;20049;-80
2021/12/08 03:25:56;;;;;;;11.80;4.93;;;6.00;94.40;;;;;;6246781;28;20045;-80
2021/12/08 03:29:03;;;;;;;11.70;4.97;;;6.00;94.20;;;;;;6247302;28;20049;-79
2021/12/08 03:32:11;;;;;;;10.35;5.20;;;5.90;94.20;;;;;;6247413;28;20052;-81
2021/12/08 03:35:16;;;;;;;12.18;5.03;;;5.90;94.20;;;;;;6247631;28;20061;-81
2021/12/08 03:38:18;;;;;;;12.45;4.85;;;5.80;94.30;;;;;;6247652;28;20055;-80
2021/12/08 03:41:21;;;;;;;11.90;4.85;;;5.80;94.30;;;;;;6247752;28;20050;-78
2021/12/08 03:44:23;;;;;;;8.50;4.57;;;5.80;94.30;;;;;;6247910;28;20060;-79
2021/12/08 03:47:28;;;;;;;12.93;6.13;;;5.80;94.30;;;;;;6247404;28;20049;-80
2021/12/08 03:50:33;;;;;;;9.23;5.32;;;5.90;94.20;;;;;;6247539;28;20614;-81
2021/12/08 03:53:35;;;;;;;9.20;5.55;;;5.90;94.20;;;;;;6247452;28;20047;-80
2021/12/08 03:56:38;;;;;;;11.25;4.68;;;5.90;94.20;;;;;;6256302;28;20123;-78
2021/12/08 03:59:40;;;;;;;12.25;5.25;;;5.90;94.30;;;;;;6289082;28;20056;-80
2021/12/08 04:02:43;;;;;;;10.73;5.85;;;5.90;94.20;;;;;;6271026;28;20514;-81
2021/12/08 04:05:51;;;;;;;10.52;4.50;;;6.00;94.20;;;;;;6270586;28;20533;-78
2021/12/08 04:08:56;;;;;;;11.38;6.32;;;6.00;94.20;;;;;;6275514;28;20056;-78
2021/12/08 04:12:00;;;;;;;12.70;5.70;;;6.00;94.00;;;;;;6276509;28;20178;-78
2021/12/08 04:15:06;;;;;;;10.27;5.57;;;5.90;94.00;;;;;;6276603;28;20051;-79
2021/12/08 04:18:08;;;;;;;10.00;4.95;;;5.90;94.20;;;;;;6277082;28;20045;-79
2021/12/08 04:21:11;;;;;;;11.27;5.30;;;5.90;94.20;;;;;;6277050;28;20057;-78
2021/12/08 04:24:14;;;;;;;9.63;5.38;;;5.90;94.30;;;;;;6283030;28;20109;-79
2021/12/08 04:27:21;;;;;;;12.07;6.20;;;6.00;94.20;;;;;;6284378;28;20049;-79
2021/12/08 04:30:27;;;;;;;13.85;5.72;;;5.90;94.10;;;;;;6286059;28;20044;-78
2021/12/08 04:33:30;;;;;;;23.40;8.27;;;5.90;94.20;;;;;;6282068;28;20470;-78
2021/12/08 04:36:40;;;;;;;13.02;5.65;;;5.90;94.20;;;;;;6281452;28;20053;-79
2021/12/08 04:39:50;;;;;;;17.20;6.05;;;5.90;94.50;;;;;;6282459;28;20049;-78
2021/12/08 04:43:05;;;;;;;12.30;6.10;;;5.90;94.50;;;;;;6282326;28;20499;-79
2021/12/08 04:46:16;;;;;;;14.38;5.55;;;5.90;94.50;;;;;;6281175;28;20052;-79
2021/12/08 04:49:35;;;;;;;16.63;6.18;;;5.90;94.60;;;;;;6283764;28;20617;-80
2021/12/08 04:52:49;;;;;;;14.07;6.20;;;5.80;94.20;;;;;;6286532;28;20037;-79
2021/12/08 05:02:50;;;;;;;11.02;5.88;;;5.50;95.20;;;;;;6286795;28;20044;-79
2021/12/08 05:06:16;;;;;;;14.98;6.40;;;5.50;95.10;;;;;;6276661;28;20052;-79
2021/12/08 05:09:21;;;;;;;20.15;6.55;;;5.40;95.20;;;;;;6281769;28;20045;-80
2021/12/08 05:12:26;;;;;;;13.02;5.90;;;5.40;95.20;;;;;;6279602;28;20711;-79
2021/12/08 05:15:34;;;;;;;17.02;6.15;;;5.30;95.30;;;;;;6280160;28;20044;-79
2021/12/08 05:18:39;;;;;;;13.07;5.50;;;5.30;95.30;;;;;;6287885;28;20113;-80
2021/12/08 05:21:44;;;;;;;18.70;6.40;;;5.30;95.60;;;;;;6291136;28;20090;-79
2021/12/08 05:24:49;;;;;;;17.52;7.22;;;5.40;95.80;;;;;;6289621;28;20045;-79
2021/12/08 05:27:56;;;;;;;12.65;5.53;;;5.50;95.70;;;;;;6290570;28;20045;-79
2021/12/08 05:31:05;;;;;;;17.95;7.22;;;5.50;95.70;;;;;;6283747;28;20049;-79
2021/12/08 05:34:08;;;;;;;13.88;6.75;;;5.50;95.50;;;;;;6289421;28;20052;-80
2021/12/08 05:37:12;;;;;;;14.82;7.30;;;5.50;95.50;;;;;;6292543;28;20113;-80
2021/12/08 05:40:18;;;;;;;16.48;6.22;;;5.50;95.60;;;;;;6293238;28;20049;-80
2021/12/08 05:43:20;;;;;;;14.45;6.68;;;5.60;95.60;;;;;;6288856;28;20068;-80
2021/12/08 05:46:26;;;;;;;16.23;6.55;;;5.60;95.50;;;;;;6291144;28;20117;-79
2021/12/08 05:49:28;;;;;;;16.88;6.75;;;5.60;95.50;;;;;;6288640;28;20055;-80
2021/12/08 05:52:30;;;;;;;16.77;8.48;;;5.60;95.70;;;;;;6288000;28;20057;-80
2021/12/08 05:55:33;;;;;;;12.60;5.75;;;5.70;95.50;;;;;;6289931;28;20049;-80
2021/12/08 05:58:36;;;;;;;17.00;7.53;;;5.70;95.50;;;;;;6291597;28;20049;-80
2021/12/08 06:01:45;;;;;;;15.85;7.10;;;5.80;95.60;;;;;;6290358;28;20104;-82
2021/12/08 06:04:48;;;;;;;17.65;8.20;;;5.80;95.50;;;;;;6288011;28;20041;-82
2021/12/08 06:07:50;;;;;;;21.95;9.30;;;5.90;95.40;;;;;;6277548;28;20123;-80
2021/12/08 06:10:52;;;;;;;14.68;7.45;;;5.90;95.40;;;;;;6290604;28;20536;-80
2021/12/08 06:13:59;;;;;;;24.38;9.27;;;5.90;95.50;;;;;;6289029;28;20071;-81
2021/12/08 06:17:07;;;;;;;19.13;8.03;;;6.00;95.50;;;;;;6289131;28;20067;-81
2021/12/08 06:20:11;;;;;;;21.75;8.25;;;6.10;95.50;;;;;;6289517;28;20056;-80
2021/12/08 06:23:14;;;;;;;21.85;8.63;;;6.10;95.50;;;;;;6289470;28;20049;-80
2021/12/08 06:26:18;;;;;;;19.25;8.70;;;6.10;95.40;;;;;;6288020;28;20095;-81
2021/12/08 06:29:21;;;;;;;20.40;10.63;;;6.10;95.20;;;;;;6287018;28;20043;-80
2021/12/08 06:32:24;;;;;;;20.52;8.73;;;6.10;95.20;;;;;;6283284;28;20045;-78
2021/12/08 06:35:31;;;;;;;16.80;9.13;;;6.00;95.20;;;;;;6282628;28;20045;-79
2021/12/08 06:38:36;;;;;;;15.00;7.90;;;6.10;95.40;;;;;;6282562;28;20053;-79
2021/12/08 06:41:41;;;;;;;20.88;9.82;;;6.10;95.40;;;;;;6281346;28;20049;-79
2021/12/08 06:44:47;;;;;;;20.77;9.13;;;6.10;95.40;;;;;;6281027;28;20102;-78
2021/12/08 06:47:52;;;;;;;24.42;9.38;;;6.10;95.10;;;;;;6278350;28;20098;-79
2021/12/08 06:50:57;;;;;;;18.48;8.90;;;6.00;94.90;;;;;;6281360;28;20057;-80
2021/12/08 06:54:02;;;;;;;15.40;6.88;;;5.90;95.20;;;;;;6280257;28;20132;-80
2021/12/08 06:57:09;;;;;;;26.20;9.43;;;5.90;95.30;;;;;;6279875;28;20055;-80
2021/12/08 07:00:22;;;;;;;19.35;8.52;;;6.00;95.40;;;;;;6282153;28;20060;-80
2021/12/08 07:03:35;;;;;;;19.48;9.05;;;6.00;95.30;;;;;;6282932;28;20040;-80
2021/12/08 07:06:46;;;;;;;21.85;8.98;;;6.00;95.20;;;;;;6279757;28;20857;-79
2021/12/08 07:09:52;;;;;;;19.15;10.07;;;6.10;95.30;;;;;;6261935;28;20045;-80
2021/12/08 07:12:58;;;;;;;17.67;9.65;;;6.10;95.40;;;;;;6255541;28;20057;-79
2021/12/08 07:16:05;;;;;;;20.55;9.57;;;6.20;95.30;;;;;;6253077;28;20049;-79
2021/12/08 07:19:21;;;;;;;15.13;7.53;;;6.20;95.30;;;;;;6252452;28;20104;-79
2021/12/08 07:22:26;;;;;;;24.45;8.75;;;6.30;95.30;;;;;;6251415;28;20048;-80
2021/12/08 07:25:30;;;;;;;14.55;7.30;;;6.30;95.10;;;;;;6250562;28;20049;-79
2021/12/08 07:28:33;;;;;;;14.00;6.55;;;6.10;94.80;;;;;;6256699;28;20433;-80
2021/12/08 07:31:38;;;;;;;13.30;7.13;;;6.10;94.80;;;;;;6256913;28;20132;-80
2021/12/08 07:34:42;;;;;;;12.27;5.88;;;5.90;94.80;;;;;;6256903;28;20063;-79
2021/12/08 07:37:45;;;;;;;12.15;6.00;;;5.80;94.80;;;;;;6253743;28;20140;-79
2021/12/08 07:40:52;;;;;;;16.00;6.32;;;5.80;95.00;;;;;;6252905;28;20046;-79
2021/12/08 07:44:02;;;;;;;11.73;5.63;;;5.70;95.00;;;;;;6251562;28;20132;-79
2021/12/08 07:47:08;;;;;;;16.60;7.57;;;5.70;94.90;;;;;;6252875;28;20071;-80
2021/12/08 07:50:17;;;;;;;14.57;7.97;;;5.70;95.20;;;;;;6251817;28;20069;-79
2021/12/08 07:53:21;;;;;;;16.30;7.07;;;5.70;95.30;;;;;;6252030;28;20048;-79
2021/12/08 07:56:27;;;;;;;17.55;7.88;;;5.80;95.40;;;;;;6251545;28;20146;-79
2021/12/08 07:59:29;;;;;;;17.85;7.82;;;6.00;95.40;;;;;;6253701;28;20146;-79
2021/12/08 08:02:31;;;;;;;13.57;7.38;;;6.00;95.30;;;;;;6253286;28;20513;-80
2021/12/08 08:05:36;;;;;;;12.48;7.03;;;6.10;95.30;;;;;;6250360;28;20045;-79
2021/12/08 08:08:38;;;;;;;13.60;5.82;;;6.10;95.10;;;;;;6258387;28;20084;-79
2021/12/08 08:11:43;;;;;;;18.35;8.77;;;6.10;95.20;;;;;;6241571;28;20105;-79
2021/12/08 08:14:51;;;;;;;15.00;7.20;;;6.20;95.20;;;;;;6265266;28;20056;-79
2021/12/08 08:17:55;;;;;;;11.75;6.88;;;6.20;95.20;;;;;;6278778;28;20056;-79
2021/12/08 08:21:02;;;;;;;11.65;7.28;;;6.30;95.30;;;;;;6277765;28;20045;-80
2021/12/08 08:24:06;;;;;;;18.88;7.53;;;6.30;95.00;;;;;;6269470;28;20041;-80
2021/12/08 08:27:10;;;;;;;16.27;7.10;;;6.30;95.10;;;;;;6256514;28;20109;-80
2021/12/08 08:30:18;;;;;;;23.17;7.68;;;6.30;95.10;;;;;;6256446;28;20050;-80
2021/12/08 08:33:20;;;;;;;12.45;6.07;;;6.40;95.10;;;;;;6254451;28;20050;-80
2021/12/08 08:36:34;;;;;;;13.90;6.65;;;6.40;95.00;;;;;;6256352;28;20041;-80
2021/12/08 08:39:39;;;;;;;13.13;6.95;;;6.50;95.10;;;;;;6257240;28;20045;-81
2021/12/08 08:42:44;;;;;;;15.55;6.72;;;6.50;95.00;;;;;;6257990;28;20129;-81
2021/12/08 08:45:52;;;;;;;16.30;8.00;;;6.50;95.00;;;;;;6270106;28;20584;-80
2021/12/08 08:49:01;;;;;;;13.65;7.65;;;6.60;95.10;;;;;;6281434;28;20041;-81
2021/12/08 08:52:08;;;;;;;10.50;6.18;;;6.70;95.10;;;;;;6283059;28;20063;-79
2021/12/08 08:55:14;;;;;;;11.43;6.50;;;6.70;95.00;;;;;;6287607;28;20060;-80
2021/12/08 08:58:17;;;;;;;14.07;6.90;;;6.70;94.90;;;;;;6282054;28;20041;-79
2021/12/08 09:01:22;;;;;;;16.77;7.95;;;6.70;95.00;;;;;;6281423;28;20045;-80
2021/12/08 09:04:27;;;;;;;14.73;7.90;;;6.80;95.00;;;;;;6280661;28;20044;-80
2021/12/08 09:07:36;;;;;;;15.35;8.30;;;6.90;95.10;;;;;;6280904;28;20144;-80
2021/12/08 09:10:42;;;;;;;12.48;8.20;;;6.90;95.10;;;;;;6280851;28;20048;-80
2021/12/08 09:13:47;;;;;;;14.60;8.07;;;7.00;94.90;;;;;;6279468;28;20051;-79
2021/12/08 09:16:53;;;;;;;14.30;7.60;;;7.10;94.80;;;;;;6281255;28;20037;-81
2021/12/08 09:20:01;;;;;;;16.10;9.35;;;7.10;94.80;;;;;;6280213;28;20493;-80
2021/12/08 09:23:09;;;;;;;19.35;7.45;;;7.10;94.90;;;;;;6282812;28;20493;-79
2021/12/08 09:26:16;;;;;;;14.07;7.07;;;7.20;94.90;;;;;;6281259;28;20135;-80
2021/12/08 09:29:21;;;;;;;23.73;6.80;;;7.30;94.70;;;;;;6280555;28;20051;-79
2021/12/08 09:32:27;;;;;;;10.68;6.05;;;7.30;94.70;;;;;;6280101;28;20049;-80
2021/12/08 09:35:42;;;;;;;12.82;6.75;;;7.40;94.60;;;;;;6279007;28;20049;-80
2021/12/08 09:38:48;;;;;;;13.07;6.50;;;7.40;94.50;;;;;;6278063;28;20578;-79
2021/12/08 09:41:55;;;;;;;12.55;5.68;;;7.40;94.50;;;;;;6277170;28;20082;-80
2021/12/08 09:45:00;;;;;;;13.98;6.15;;;7.50;94.30;;;;;;6276602;28;20179;-80
2021/12/08 09:48:03;;;;;;;12.60;6.18;;;7.50;94.20;;;;;;6278889;28;20108;-80
2021/12/08 09:51:05;;;;;;;10.10;5.47;;;7.50;94.10;;;;;;6279427;28;20049;-79
2021/12/08 09:54:10;;;;;;;11.75;6.18;;;7.40;94.40;;;;;;6278883;28;20127;-80
2021/12/08 09:57:14;;;;;;;10.25;5.53;;;7.40;94.20;;;;;;6280640;28;20140;-79
2021/12/08 10:00:22;;;;;;;14.15;6.45;;;7.40;94.10;;;;;;6277449;28;20049;-80
2021/12/08 10:06:29;;;;;;;14.70;7.25;;;7.30;94.10;;;;;;6262052;28;20050;-79
2021/12/08 10:09:33;;;;;;;13.80;6.40;;;7.40;94.30;;;;;;6267102;28;20054;-78
2021/12/08 10:12:37;;;;;;;14.75;5.95;;;7.40;94.20;;;;;;6251367;28;20056;-78
2021/12/08 10:15:39;;;;;;;16.00;6.82;;;7.40;94.30;;;;;;6229362;28;20035;-78
2021/12/08 10:18:43;;;;;;;14.32;6.13;;;7.50;94.30;;;;;;6227308;28;20031;-78
2021/12/08 10:21:46;;;;;;;18.00;5.80;;;7.50;94.40;;;;;;6229389;28;20046;-79
2021/12/08 10:25:07;;;;;;;14.52;6.78;;;7.50;94.20;;;;;;6226221;28;20069;-78
2021/12/08 10:28:12;;;;;;;16.73;7.57;;;7.60;94.30;;;;;;6225857;28;20300;-78
2021/12/08 10:31:16;;;;;;;13.15;5.53;;;7.70;94.20;;;;;;6225156;28;20105;-78
2021/12/08 10:34:25;;;;;;;14.70;6.85;;;7.80;94.20;;;;;;6214476;28;20106;-78
2021/12/08 10:37:26;;;;;;;12.57;7.15;;;7.90;94.20;;;;;;6217340;28;20034;-78
2021/12/08 10:40:30;;;;;;;18.52;6.55;;;7.90;94.10;;;;;;6217058;28;20051;-80
2021/12/08 10:43:32;;;;;;;11.40;6.30;;;8.00;94.10;;;;;;6214876;28;20479;-78
2021/12/08 10:46:37;;;;;;;10.98;6.28;;;8.10;94.00;;;;;;6209227;28;20235;-79
2021/12/08 10:56:40;;;;;;;12.80;6.55;;;8.30;93.50;;;;;;6214933;28;20046;-78
2021/12/08 11:00:10;;;;;;;10.18;5.45;;;8.40;93.80;;;;;;6211532;28;20046;-78
2021/12/08 11:03:13;;;;;;;16.73;5.70;;;8.40;93.50;;;;;;6194591;28;20073;-79
2021/12/08 11:06:17;;;;;;;9.48;5.22;;;8.40;93.70;;;;;;6244620;28;20083;-78
2021/12/08 11:09:20;;;;;;;10.77;5.57;;;8.40;93.70;;;;;;6243259;28;20054;-78
2021/12/08 11:12:39;;;;;;;9.30;5.72;;;8.40;93.90;;;;;;6231010;28;20113;-80
2021/12/08 11:15:41;;;;;;;13.25;6.47;;;8.50;93.90;;;;;;6236616;28;20407;-79
2021/12/08 11:18:45;;;;;;;10.30;5.70;;;8.70;93.90;;;;;;6236325;28;20138;-78
2021/12/08 11:21:49;;;;;;;13.25;5.30;;;8.80;93.80;;;;;;6241199;28;20050;-78
2021/12/08 11:24:57;;;;;;;12.75;5.90;;;8.90;93.80;;;;;;6240878;28;20072;-78
2021/12/08 11:28:18;;;;;;;9.73;4.95;;;8.90;93.60;;;;;;6239426;28;20046;-79
2021/12/08 11:31:20;;;;;;;10.80;5.15;;;9.00;93.90;;;;;;6242879;28;20101;-79
2021/12/08 11:34:24;;;;;;;12.93;6.28;;;9.10;93.30;;;;;;6235412;28;20086;-79
2021/12/08 11:37:32;;;;;;;7.05;4.35;;;9.10;93.50;;;;;;6238988;28;20114;-78
2021/12/08 11:40:35;;;;;;;12.30;7.57;;;9.20;93.50;;;;;;6240521;28;20050;-81
2021/12/08 11:43:38;;;;;;;13.23;6.88;;;9.30;93.30;;;;;;6235838;28;20046;-78
2021/12/08 11:46:45;;;;;;;10.13;6.22;;;9.30;93.30;;;;;;6235962;28;20060;-79
2021/12/08 11:49:49;;;;;;;10.60;6.15;;;9.40;93.30;;;;;;6238251;28;20109;-79
2021/12/08 11:52:53;;;;;;;9.63;5.32;;;9.40;93.20;;;;;;6241993;28;20104;-79
2021/12/08 11:55:55;;;;;;;10.65;6.20;;;9.40;93.10;;;;;;6238711;28;20077;-79
2021/12/08 11:58:59;;;;;;;10.68;5.13;;;9.50;93.10;;;;;;6238583;28;20050;-80
2021/12/08 12:02:01;;;;;;;9.27;5.25;;;9.50;93.10;;;;;;6236172;28;20105;-79
2021/12/08 12:05:06;;;;;;;13.35;6.50;;;9.50;92.90;;;;;;6238009;28;20674;-79
2021/12/08 12:08:11;;;;;;;10.05;5.95;;;9.50;93.00;;;;;;6239803;28;20045;-79
2021/12/08 12:11:13;;;;;;;11.93;6.95;;;9.60;92.80;;;;;;6241086;28;20107;-79
2021/12/08 12:14:17;;;;;;;13.20;6.90;;;9.60;92.80;;;;;;6230645;28;20065;-78
2021/12/08 12:17:18;;;;;;;13.15;6.68;;;9.50;92.50;;;;;;6234418;28;20052;-79
2021/12/08 12:20:25;;;;;;;9.27;6.10;;;9.50;92.60;;;;;;6236696;28;20105;-80
2021/12/08 12:23:52;;;;;;;9.85;6.03;;;9.50;92.70;;;;;;6215340;28;20082;-78
2021/12/08 12:27:09;;;;;;;16.63;6.22;;;9.40;92.70;;;;;;6212999;28;20219;-79
2021/12/08 12:30:27;;;;;;;26.75;6.00;;;9.40;92.80;;;;;;6216183;28;20047;-79
2021/12/08 12:33:39;;;;;;;15.48;6.32;;;9.30;92.90;;;;;;6221011;28;20125;-78
2021/12/08 12:36:41;;;;;;;11.40;5.90;;;9.30;93.00;;;;;;6219179;28;20050;-78
2021/12/08 12:39:48;;;;;;;13.60;5.78;;;9.30;92.80;;;;;;6217673;28;20046;-79
2021/12/08 12:42:55;;;;;;;10.52;5.95;;;9.30;92.90;;;;;;6217077;28;20054;-79
2021/12/08 12:46:07;;;;;;;10.38;6.03;;;9.30;92.90;;;;;;6221406;28;20065;-79
2021/12/08 12:49:21;;;;;;;10.93;5.30;;;9.30;93.00;;;;;;6222769;28;20092;-80
2021/12/08 12:52:36;;;;;;;13.43;6.68;;;9.30;93.00;;;;;;6221707;28;20060;-79
2021/12/08 12:55:46;;;;;;;21.15;5.55;;;9.30;92.90;;;;;;6240354;28;20060;-78
2021/12/08 12:58:51;;;;;;;20.80;5.60;;;9.30;93.10;;;;;;6240403;28;20109;-78
2021/12/08 13:02:09;;;;;;;15.63;6.22;;;9.30;93.30;;;;;;6244127;28;20076;-78
2021/12/08 13:05:12;;;;;;;8.55;5.72;;;9.30;92.70;;;;;;6236993;28;20073;-79
2021/12/08 13:08:29;;;;;;;11.13;6.97;;;9.30;93.00;;;;;;6242728;28;20057;-79
2021/12/08 13:11:57;;;;;;;10.45;6.00;;;9.30;93.00;;;;;;6242198;28;20046;-80
2021/12/08 13:15:13;;;;;;;12.82;5.95;;;9.30;92.90;;;;;;6237958;28;20480;-79
2021/12/08 13:18:17;;;;;;;9.07;4.85;;;9.30;92.90;;;;;;6236734;28;20128;-79
2021/12/08 13:21:38;;;;;;;11.50;5.13;;;9.20;92.80;;;;;;6236704;28;20053;-79
2021/12/08 13:24:42;;;;;;;13.68;5.50;;;9.30;92.80;;;;;;6237570;28;20070;-79
2021/12/08 13:27:49;;;;;;;11.55;6.97;;;9.30;92.80;;;;;;6237752;28;20129;-79
2021/12/08 13:30:56;;;;;;;11.93;5.53;;;9.30;92.70;;;;;;6242044;28;20136;-79
2021/12/08 13:34:02;;;;;;;9.50;5.50;;;9.30;92.70;;;;;;6241567;28;20052;-79
2021/12/08 13:37:18;;;;;;;9.40;5.38;;;9.40;92.70;;;;;;6241446;28;20050;-80
2021/12/08 13:40:20;;;;;;;8.93;4.80;;;9.40;92.70;;;;;;6242833;28;20058;-80
2021/12/08 13:43:37;;;;;;;14.05;5.80;;;9.30;92.60;;;;;;6240890;28;20060;-82
2021/12/08 13:46:43;;;;;;;9.02;5.68;;;9.30;92.60;;;;;;6240393;28;20046;-80
2021/12/08 13:49:51;;;;;;;10.15;4.82;;;9.30;92.70;;;;;;6240154;28;20048;-79
2021/12/08 13:53:06;;;;;;;13.32;5.63;;;9.40;92.80;;;;;;6241137;28;20062;-81
2021/12/08 13:56:08;;;;;;;13.82;5.05;;;9.30;92.50;;;;;;6242756;28;20109;-81
2021/12/08 13:59:10;;;;;;;13.57;6.30;;;9.30;92.60;;;;;;6243050;28;20053;-81
2021/12/08 14:02:26;;;;;;;10.18;5.18;;;9.30;92.60;;;;;;6241684;28;20076;-81
2021/12/08 14:05:32;;;;;;;12.75;5.32;;;9.30;92.60;;;;;;6241147;28;20042;-81
2021/12/08 14:08:36;;;;;;;9.90;5.15;;;9.20;92.30;;;;;;6241741;28;20045;-81
2021/12/08 14:11:38;;;;;;;11.75;4.82;;;9.20;92.80;;;;;;6240502;28;20050;-80
2021/12/08 14:14:40;;;;;;;11.48;5.22;;;9.10;92.60;;;;;;6240706;28;20088;-79
2021/12/08 14:17:41;;;;;;;8.50;5.35;;;9.10;92.90;;;;;;6241732;28;20073;-79
2021/12/08 14:20:48;;;;;;;11.48;5.72;;;9.10;92.80;;;;;;6242960;28;20056;-80
2021/12/08 14:23:52;;;;;;;11.05;5.72;;;9.10;92.80;;;;;;6242218;28;20125;-77
2021/12/08 14:26:55;;;;;;;8.38;5.38;;;9.20;92.70;;;;;;6238161;28;20099;-80
2021/12/08 14:29:58;;;;;;;13.93;5.75;;;9.20;92.70;;;;;;6237642;28;20049;-78
2021/12/08 14:33:01;;;;;;;11.73;5.38;;;9.20;92.60;;;;;;6238376;28;20100;-80
2021/12/08 14:36:07;;;;;;;11.95;5.53;;;9.20;92.60;;;;;;6238040;28;20109;-78
2021/12/08 14:39:12;;;;;;;14.73;4.78;;;9.10;92.70;;;;;;6245760;28;20109;-79
2021/12/08 14:42:15;;;;;;;8.90;4.70;;;9.10;92.70;;;;;;6250020;28;20056;-78
2021/12/08 14:45:17;;;;;;;10.73;4.40;;;9.10;92.50;;;;;;6241183;28;20105;-83
2021/12/08 14:48:19;;;;;;;10.27;5.40;;;9.00;92.60;;;;;;6244928;28;20087;-80
2021/12/08 14:51:25;;;;;;;11.23;5.82;;;8.90;92.60;;;;;;6244840;28;20049;-80
2021/12/08 14:54:28;;;;;;;11.75;6.03;;;8.90;92.50;;;;;;6243240;28;20581;-79
2021/12/08 14:57:32;;;;;;;9.25;5.00;;;8.90;92.50;;;;;;6237891;28;20049;-82
2021/12/08 15:00:34;;;;;;;11.35;5.65;;;8.80;92.50;;;;;;6240248;28;20050;-82
2021/12/08 15:03:41;;;;;;;11.52;6.13;;;8.70;92.70;;;;;;6239808;28;20507;-82
2021/12/08 15:06:52;;;;;;;11.43;5.18;;;8.70;92.60;;;;;;6242252;28;20288;-79
2021/12/08 15:10:05;;;;;;;14.18;5.25;;;8.60;92.60;;;;;;6239015;28;20114;-79
2021/12/08 15:13:11;;;;;;;8.75;5.53;;;8.60;92.70;;;;;;6237528;28;20562;-78
2021/12/08 15:16:18;;;;;;;8.90;4.85;;;8.60;92.70;;;;;;6236529;28;20060;-78
2021/12/08 15:19:21;;;;;;;8.25;4.50;;;8.50;92.70;;;;;;6239111;28;20119;-79
2021/12/08 15:22:30;;;;;;;10.98;5.68;;;8.50;92.60;;;;;;6239105;28;20046;-80
2021/12/08 15:25:32;;;;;;;9.48;4.80;;;8.50;92.70;;;;;;6237647;28;20041;-80
2021/12/08 15:28:35;;;;;;;10.20;4.90;;;8.50;92.70;;;;;;6239194;28;20049;-80
2021/12/08 15:31:38;;;;;;;10.38;4.18;;;8.40;92.70;;;;;;6239677;28;20054;-81
2021/12/08 15:34:40;;;;;;;9.73;4.25;;;8.40;92.60;;;;;;6238830;28;20085;-79
2021/12/08 15:37:55;;;;;;;9.48;3.88;;;8.40;92.70;;;;;;6238116;28;20046;-79
2021/12/08 15:40:58;;;;;;;8.52;5.20;;;8.30;92.70;;;;;;6242960;28;20077;-80
2021/12/08 15:44:12;;;;;;;12.35;6.20;;;8.30;92.70;;;;;;6234730;28;20070;-82
2021/12/08 15:47:14;;;;;;;10.43;4.68;;;8.30;92.60;;;;;;6208879;28;20050;-80
2021/12/08 15:50:21;;;;;;;9.50;4.43;;;8.20;92.70;;;;;;6216391;28;20114;-79
2021/12/08 15:53:27;;;;;;;13.07;4.97;;;8.20;92.70;;;;;;6218773;28;20117;-81
2021/12/08 15:56:31;;;;;;;20.08;4.53;;;8.20;92.60;;;;;;6218112;28;20065;-80
2021/12/08 15:59:34;;;;;;;9.75;5.32;;;8.10;92.70;;;;;;6217789;28;20065;-80
2021/12/08 16:02:39;;;;;;;14.35;4.50;;;8.10;92.80;;;;;;6219732;28;20467;-80
2021/12/08 16:05:42;;;;;;;9.25;4.70;;;8.10;92.80;;;;;;6223956;23;20141;-79
2021/12/08 16:08:47;;;;;;;10.20;3.90;;;8.00;92.80;;;;;;6197371;28;20046;-80
2021/12/08 16:11:51;;;;;;;10.55;4.60;;;8.00;92.80;;;;;;6198884;28;20125;-79
2021/12/08 16:14:56;;;;;;;9.77;4.53;;;8.00;92.90;;;;;;6197871;28;20038;-80
2021/12/08 16:18:00;;;;;;;9.13;4.40;;;8.00;92.90;;;;;;6165933;28;20430;-78
2021/12/08 16:21:02;;;;;;;9.65;5.07;;;8.00;92.90;;;;;;6229412;28;20129;-78
2021/12/08 16:24:06;;;;;;;8.70;4.70;;;8.00;92.80;;;;;;6219622;28;20045;-78
2021/12/08 16:27:11;;;;;;;14.85;4.72;;;8.00;92.80;;;;;;6220786;28;20125;-79
2021/12/08 16:30:12;;;;;;;13.10;5.72;;;7.90;92.80;;;;;;6221615;28;20046;-79
2021/12/08 16:33:14;;;;;;;8.98;5.30;;;7.90;92.80;;;;;;6220857;28;20045;-78
2021/12/08 16:36:16;;;;;;;14.13;5.93;;;7.90;92.80;;;;;;6222521;28;20058;-80
2021/12/08 16:39:25;;;;;;;15.68;4.68;;;7.90;92.70;;;;;;6222720;28;20057;-79
2021/12/08 16:45:50;;;;;;;10.98;4.50;;;7.80;92.80;;;;;;6220277;28;20037;-78
2021/12/08 16:48:54;;;;;;;14.82;5.38;;;7.70;92.80;;;;;;6220787;28;20049;-78